Overview Statistics Trail Chart Weather Telemetry Raw packets
 

This is the latest recevied weather packets stored in our database for station/object KB4JAC-13. If no packets are shown the sender has not sent any weather packets the latest 10 day(s).

<< 29 30 31 32 33 34 35 >>
Time Temp. Humidity Pressure Rain* Wind** Luminosity Snow
1788117286 33.33° C 53% 994.4 hPa 0 mm - - -
1788116685 32.22° C 62% 994.6 hPa 0 mm - - -
1788116084 32.78° C 58% 994.8 hPa 0 mm - - -
1788115484 33.33° C 57% 994.8 hPa 0 mm - - -
1788114883 34.44° C 54% 995 hPa 0 mm - - -
1788114283 33.33° C 55% 995.3 hPa 0 mm - - -
1788113682 32.78° C 58% 995.6 hPa 0 mm - - -
1788113081 31.11° C 65% 995.5 hPa 0 mm - - -
1788112481 32.22° C 62% 995.7 hPa 0 mm - - -
1788111880 32.22° C 65% 995.7 hPa 0 mm - - -
1788111279 30.56° C 72% 995.9 hPa 0 mm - - -
1788110679 30° C 71% 996 hPa 0 mm - - -
1788110078 30.56° C 71% 996.3 hPa 0 mm - - -
1788109478 30.56° C 72% 996.3 hPa 0 mm - - -
1788108878 30.56° C 70% 996.4 hPa 0 mm - - -
1788108277 30° C 75% 996.6 hPa 0 mm - - -
1788107676 28.89° C 79% 996.7 hPa 0 mm - - -
1788107076 30° C 78% 996.8 hPa 0 mm - - -
1788106476 29.44° C 77% 996.8 hPa 0 mm - - -
1788105875 30° C 75% 996.9 hPa 0 mm - - -
1788105275 29.44° C 77% 996.8 hPa 0 mm - - -
1788104674 28.89° C 79% 996.8 hPa 0 mm - - -
1788104074 28.89° C 79% 996.9 hPa 0 mm - - -
1788103473 29.44° C 77% 996.9 hPa 0 mm - - -
1788102873 30° C 77% 997.1 hPa 0 mm - - -

* Rain since midnight (hover to see other rain measurements)
** Current wind speed in m/s (hover to see current wind gust speed)